Time;durP1;ratioP1;P1;durP2;ratioP2;P2;SDS_P1;SDS_P2;PMS_P1;PMS_P2;Temp;Humidity;BMP_temperature;BMP_pressure;BME280_temperature;BME280_humidity;BME280_pressure;Samples;Min_cycle;Max_cycle;Signal;HPM_P1;HPM_P2
2023/09/21 00:01:23;;;;;;;3.03;1.77;;;;;;;;;;5083022;28;20063;-68
2023/09/21 00:03:54;;;;;;;3.72;2.17;;;;;;;;;;5084497;28;20040;-69
2023/09/21 00:06:24;;;;;;;4.40;1.98;;;;;;;;;;5082836;28;20052;-67
2023/09/21 00:08:53;;;;;;;3.78;2.17;;;;;;;;;;5083680;28;20036;-67
2023/09/21 00:11:22;;;;;;;2.58;1.88;;;;;;;;;;5080846;28;20044;-66
2023/09/21 00:13:50;;;;;;;3.47;2.20;;;;;;;;;;5079447;28;20101;-67
2023/09/21 00:16:20;;;;;;;4.88;2.00;;;;;;;;;;5081649;28;20136;-66
2023/09/21 00:18:49;;;;;;;3.17;1.75;;;;;;;;;;5081098;28;20036;-67
2023/09/21 00:21:18;;;;;;;4.30;2.33;;;;;;;;;;5081972;28;20044;-67
2023/09/21 00:23:47;;;;;;;3.63;2.13;;;;;;;;;;5082399;28;20076;-67
2023/09/21 00:26:17;;;;;;;4.07;2.22;;;;;;;;;;5083413;28;20105;-66
2023/09/21 00:28:46;;;;;;;7.03;2.38;;;;;;;;;;5085148;28;20051;-67
2023/09/21 00:31:14;;;;;;;5.90;2.17;;;;;;;;;;5084117;28;20048;-67
2023/09/21 00:33:43;;;;;;;5.10;2.03;;;;;;;;;;5083479;28;20093;-67
2023/09/21 00:36:17;;;;;;;4.32;2.25;;;;;;;;;;5083441;28;20062;-67
2023/09/21 00:38:47;;;;;;;4.80;2.70;;;;;;;;;;5082335;28;20049;-67
2023/09/21 00:41:17;;;;;;;5.80;2.40;;;;;;;;;;5083660;28;20101;-67
2023/09/21 00:43:46;;;;;;;5.88;2.53;;;;;;;;;;5082115;28;20051;-66
2023/09/21 00:46:15;;;;;;;6.43;2.15;;;;;;;;;;5086451;28;20044;-67
2023/09/21 00:48:44;;;;;;;5.13;2.10;;;;;;;;;;5083435;28;20152;-67
2023/09/21 00:51:16;;;;;;;5.10;2.10;;;;;;;;;;5083621;28;20485;-67
2023/09/21 00:53:47;;;;;;;4.32;2.10;;;;;;;;;;5081589;28;20585;-67
2023/09/21 00:56:17;;;;;;;2.75;2.10;;;;;;;;;;5083269;28;20047;-67
2023/09/21 00:58:47;;;;;;;6.45;2.30;;;;;;;;;;5085204;28;20044;-66
2023/09/21 01:01:16;;;;;;;2.50;1.83;;;;;;;;;;5079700;28;20355;-66
2023/09/21 01:03:46;;;;;;;4.38;2.33;;;;;;;;;;5081302;28;20052;-67
2023/09/21 01:06:18;;;;;;;3.13;2.35;;;;;;;;;;5085238;28;20348;-66
2023/09/21 01:08:46;;;;;;;2.90;1.98;;;;;;;;;;5082851;28;20246;-67
2023/09/21 01:11:15;;;;;;;4.82;2.42;;;;;;;;;;5081349;28;20643;-66
2023/09/21 01:13:44;;;;;;;5.15;2.00;;;;;;;;;;5082559;28;20071;-67
2023/09/21 01:16:13;;;;;;;3.65;2.33;;;;;;;;;;5081016;28;20052;-67
2023/09/21 01:18:42;;;;;;;4.63;2.13;;;;;;;;;;5084654;28;20044;-67
2023/09/21 01:21:13;;;;;;;4.95;2.40;;;;;;;;;;5079679;28;20048;-66
2023/09/21 01:23:45;;;;;;;2.58;2.00;;;;;;;;;;5083171;28;20052;-66
2023/09/21 01:26:14;;;;;;;5.38;2.28;;;;;;;;;;5081158;28;20044;-67
2023/09/21 01:28:44;;;;;;;2.80;1.77;;;;;;;;;;5082184;28;20047;-67
2023/09/21 01:31:13;;;;;;;5.13;2.40;;;;;;;;;;5081444;28;20040;-66
2023/09/21 01:33:43;;;;;;;3.83;2.00;;;;;;;;;;5082479;28;20040;-67
2023/09/21 01:36:12;;;;;;;2.95;1.90;;;;;;;;;;5080499;28;20544;-66
2023/09/21 01:38:44;;;;;;;4.22;2.00;;;;;;;;;;5083089;28;20044;-67
2023/09/21 01:41:16;;;;;;;3.15;2.10;;;;;;;;;;5080681;28;20258;-66
2023/09/21 01:43:45;;;;;;;2.88;1.75;;;;;;;;;;5080873;28;20040;-66
2023/09/21 01:46:17;;;;;;;4.47;2.13;;;;;;;;;;5082962;28;20041;-67
2023/09/21 01:48:46;;;;;;;5.63;2.03;;;;;;;;;;5081454;28;20059;-66
2023/09/21 01:51:16;;;;;;;3.33;1.83;;;;;;;;;;5080488;28;20040;-67
2023/09/21 01:53:45;;;;;;;3.15;1.90;;;;;;;;;;5081967;28;20062;-66
2023/09/21 01:56:15;;;;;;;3.58;1.70;;;;;;;;;;5085477;28;20484;-66
2023/09/21 01:58:44;;;;;;;2.70;1.83;;;;;;;;;;5084010;28;20374;-67
2023/09/21 02:01:16;;;;;;;3.25;1.67;;;;;;;;;;5080363;28;20067;-66
2023/09/21 02:03:45;;;;;;;3.97;2.35;;;;;;;;;;5079888;28;20051;-67
2023/09/21 02:06:15;;;;;;;3.70;1.80;;;;;;;;;;5074354;28;20051;-66
2023/09/21 02:08:44;;;;;;;3.92;1.73;;;;;;;;;;5078785;28;20132;-67
2023/09/21 02:11:13;;;;;;;2.72;1.73;;;;;;;;;;5079693;28;20059;-67
2023/09/21 02:13:43;;;;;;;2.92;2.17;;;;;;;;;;5078886;28;20044;-66
2023/09/21 02:16:14;;;;;;;3.22;1.95;;;;;;;;;;5083102;28;20113;-67
2023/09/21 02:18:44;;;;;;;4.68;1.92;;;;;;;;;;5080804;28;20463;-66
2023/09/21 02:21:17;;;;;;;5.50;2.28;;;;;;;;;;5077533;28;20052;-68
2023/09/21 02:23:46;;;;;;;3.92;1.90;;;;;;;;;;5083848;28;20036;-69
2023/09/21 02:26:15;;;;;;;3.53;1.80;;;;;;;;;;5084150;28;20466;-68
2023/09/21 02:28:45;;;;;;;4.65;2.20;;;;;;;;;;5081403;28;20044;-66
2023/09/21 02:31:13;;;;;;;4.63;1.92;;;;;;;;;;5081477;28;20040;-66
2023/09/21 02:33:42;;;;;;;3.53;1.98;;;;;;;;;;5078787;28;20573;-66
2023/09/21 02:36:19;;;;;;;3.50;1.95;;;;;;;;;;5079882;28;20182;-66
2023/09/21 02:38:48;;;;;;;3.72;1.67;;;;;;;;;;5080339;28;20058;-66
2023/09/21 02:41:17;;;;;;;2.90;1.77;;;;;;;;;;5080968;28;20130;-66
2023/09/21 02:43:47;;;;;;;2.92;1.73;;;;;;;;;;5082174;28;20044;-66
2023/09/21 02:46:16;;;;;;;3.22;2.30;;;;;;;;;;5081734;28;20504;-66
2023/09/21 02:48:46;;;;;;;2.80;1.42;;;;;;;;;;5087093;28;20081;-66
2023/09/21 02:51:15;;;;;;;4.85;1.77;;;;;;;;;;5081789;28;20101;-66
2023/09/21 02:53:46;;;;;;;4.75;1.60;;;;;;;;;;5087399;28;20036;-66
2023/09/21 02:56:19;;;;;;;3.38;1.83;;;;;;;;;;5089147;28;20488;-66
2023/09/21 02:58:49;;;;;;;5.60;1.77;;;;;;;;;;5079758;28;20151;-66
2023/09/21 03:01:20;;;;;;;3.67;1.77;;;;;;;;;;5085676;28;20093;-66
2023/09/21 03:03:48;;;;;;;4.43;2.20;;;;;;;;;;5085898;28;20063;-66
2023/09/21 03:06:18;;;;;;;5.20;2.00;;;;;;;;;;5083284;28;20075;-66
2023/09/21 03:08:48;;;;;;;3.92;1.83;;;;;;;;;;5082743;28;20295;-67
2023/09/21 03:11:16;;;;;;;2.50;1.60;;;;;;;;;;5085772;28;20505;-66
2023/09/21 03:13:45;;;;;;;6.07;2.05;;;;;;;;;;5085581;28;20434;-66
2023/09/21 03:16:17;;;;;;;2.05;1.80;;;;;;;;;;5086805;28;20319;-66
2023/09/21 03:18:47;;;;;;;4.05;1.70;;;;;;;;;;5075909;28;20052;-66
2023/09/21 03:21:16;;;;;;;3.42;1.88;;;;;;;;;;5082106;28;20101;-66
2023/09/21 03:23:46;;;;;;;3.05;2.00;;;;;;;;;;5082357;28;20432;-66
2023/09/21 03:26:15;;;;;;;3.15;1.77;;;;;;;;;;5083953;28;20044;-66
2023/09/21 03:28:47;;;;;;;3.35;1.65;;;;;;;;;;5085990;28;20052;-66
2023/09/21 03:31:18;;;;;;;2.47;1.92;;;;;;;;;;5078805;28;21853;-66
2023/09/21 03:33:47;;;;;;;4.03;1.95;;;;;;;;;;5086815;28;20126;-66
2023/09/21 03:36:16;;;;;;;5.00;1.80;;;;;;;;;;5083031;28;20459;-66
2023/09/21 03:38:47;;;;;;;6.78;2.10;;;;;;;;;;5082720;28;20056;-66
2023/09/21 03:41:16;;;;;;;3.92;1.77;;;;;;;;;;5082392;28;20046;-66
2023/09/21 03:43:44;;;;;;;4.18;2.08;;;;;;;;;;5087399;28;20105;-66
2023/09/21 03:46:13;;;;;;;8.13;2.25;;;;;;;;;;5084337;28;20036;-66
2023/09/21 03:48:43;;;;;;;3.85;1.60;;;;;;;;;;5085907;28;20500;-66
2023/09/21 03:51:12;;;;;;;7.75;1.90;;;;;;;;;;5084567;28;20044;-66
2023/09/21 03:53:41;;;;;;;3.70;1.92;;;;;;;;;;5085672;28;20143;-66
2023/09/21 03:56:10;;;;;;;4.85;1.88;;;;;;;;;;5086537;28;20047;-66
2023/09/21 03:58:38;;;;;;;2.42;1.85;;;;;;;;;;5085530;28;20056;-66
2023/09/21 04:01:08;;;;;;;7.50;1.90;;;;;;;;;;5081622;28;20036;-66
2023/09/21 04:03:36;;;;;;;5.38;1.77;;;;;;;;;;5084024;28;20121;-66
2023/09/21 04:06:07;;;;;;;2.83;1.92;;;;;;;;;;5080121;28;20611;-66
2023/09/21 04:08:36;;;;;;;2.22;1.90;;;;;;;;;;5083283;28;20290;-66
2023/09/21 04:11:04;;;;;;;4.03;1.77;;;;;;;;;;5083553;28;20044;-66
2023/09/21 04:13:34;;;;;;;5.40;1.90;;;;;;;;;;5082059;28;20505;-66
2023/09/21 04:16:06;;;;;;;4.15;1.73;;;;;;;;;;5079724;28;20040;-66
2023/09/21 04:18:35;;;;;;;2.40;1.58;;;;;;;;;;5083127;28;20052;-66
2023/09/21 04:21:09;;;;;;;4.05;2.00;;;;;;;;;;5082049;28;20055;-66
2023/09/21 04:23:47;;;;;;;3.40;2.28;;;;;;;;;;5084735;28;20051;-66
2023/09/21 04:26:16;;;;;;;2.60;1.75;;;;;;;;;;5082882;28;20050;-66
2023/09/21 04:28:47;;;;;;;3.15;2.10;;;;;;;;;;5084899;28;20044;-66
2023/09/21 04:31:16;;;;;;;2.95;1.52;;;;;;;;;;5077982;28;20405;-66
2023/09/21 04:33:45;;;;;;;2.67;1.90;;;;;;;;;;5076781;28;20093;-66
2023/09/21 04:36:15;;;;;;;9.75;2.53;;;;;;;;;;5081310;28;20545;-66
2023/09/21 04:38:44;;;;;;;5.60;2.25;;;;;;;;;;5079980;28;20504;-66
2023/09/21 04:41:14;;;;;;;9.85;2.03;;;;;;;;;;5080655;28;20044;-66
2023/09/21 04:43:43;;;;;;;4.40;1.67;;;;;;;;;;5083402;28;20055;-66
2023/09/21 04:46:13;;;;;;;6.30;2.50;;;;;;;;;;5083164;28;20525;-66
2023/09/21 04:48:42;;;;;;;2.45;1.85;;;;;;;;;;5081857;28;20424;-66
2023/09/21 04:51:14;;;;;;;2.85;1.63;;;;;;;;;;5082686;28;20477;-66
2023/09/21 04:53:44;;;;;;;3.45;1.63;;;;;;;;;;5077705;28;20143;-66
2023/09/21 04:56:13;;;;;;;4.40;1.50;;;;;;;;;;5076563;28;20474;-66
2023/09/21 04:58:41;;;;;;;3.60;1.92;;;;;;;;;;5081299;28;20542;-70
2023/09/21 05:01:10;;;;;;;5.47;2.40;;;;;;;;;;5080177;28;20512;-67
2023/09/21 05:03:39;;;;;;;5.10;2.50;;;;;;;;;;5080815;28;20051;-67
2023/09/21 05:06:08;;;;;;;4.30;1.90;;;;;;;;;;5077999;28;20048;-66
2023/09/21 05:08:37;;;;;;;3.88;1.83;;;;;;;;;;5084573;28;20056;-66
2023/09/21 05:11:07;;;;;;;6.68;2.20;;;;;;;;;;5084751;28;20105;-67
2023/09/21 05:13:36;;;;;;;3.72;1.80;;;;;;;;;;5082826;28;20143;-66
2023/09/21 05:16:05;;;;;;;2.95;2.00;;;;;;;;;;5080643;28;20540;-66
2023/09/21 05:18:33;;;;;;;4.40;1.73;;;;;;;;;;5077678;28;20346;-66
2023/09/21 05:21:04;;;;;;;5.55;2.03;;;;;;;;;;5080589;28;20044;-66
2023/09/21 05:23:33;;;;;;;4.72;2.20;;;;;;;;;;5079509;28;20052;-66
2023/09/21 05:26:02;;;;;;;3.03;1.80;;;;;;;;;;5082255;28;20177;-67
2023/09/21 05:28:32;;;;;;;3.20;1.90;;;;;;;;;;5085256;28;20163;-67
2023/09/21 05:31:00;;;;;;;5.50;2.20;;;;;;;;;;5081082;28;20055;-69
2023/09/21 05:33:30;;;;;;;5.22;2.20;;;;;;;;;;5082378;28;20437;-67
2023/09/21 05:36:04;;;;;;;2.90;1.75;;;;;;;;;;5081420;28;20146;-67
2023/09/21 05:38:33;;;;;;;4.63;2.28;;;;;;;;;;5084312;28;20382;-67
2023/09/21 05:41:03;;;;;;;3.67;2.10;;;;;;;;;;5081988;28;20039;-67
2023/09/21 05:43:33;;;;;;;3.28;2.00;;;;;;;;;;5081660;28;20043;-67
2023/09/21 05:46:01;;;;;;;3.15;1.80;;;;;;;;;;5082726;28;20077;-67
2023/09/21 05:48:31;;;;;;;2.88;1.73;;;;;;;;;;5080878;28;20433;-67
2023/09/21 05:51:01;;;;;;;5.28;2.15;;;;;;;;;;5077831;28;20040;-67
2023/09/21 05:53:31;;;;;;;2.45;1.60;;;;;;;;;;5079969;28;20593;-67
2023/09/21 05:55:59;;;;;;;3.65;1.83;;;;;;;;;;5082341;28;20040;-67
2023/09/21 05:58:29;;;;;;;3.67;1.45;;;;;;;;;;5079611;28;20048;-67
2023/09/21 06:01:00;;;;;;;4.68;1.70;;;;;;;;;;5079349;28;20672;-67
2023/09/21 06:03:28;;;;;;;3.90;1.67;;;;;;;;;;5084442;28;20070;-67
2023/09/21 06:05:57;;;;;;;3.88;1.80;;;;;;;;;;5080771;28;20588;-67
2023/09/21 06:08:26;;;;;;;3.70;1.60;;;;;;;;;;5080556;28;20040;-67
2023/09/21 06:10:54;;;;;;;4.45;1.55;;;;;;;;;;5080601;28;20083;-67
2023/09/21 06:13:25;;;;;;;2.80;1.52;;;;;;;;;;5076831;28;20121;-67
2023/09/21 06:15:53;;;;;;;2.53;1.67;;;;;;;;;;5084629;28;20044;-67
2023/09/21 06:18:23;;;;;;;4.43;1.65;;;;;;;;;;5083764;28;20109;-68
2023/09/21 06:20:52;;;;;;;4.88;1.50;;;;;;;;;;5081177;28;20060;-67
2023/09/21 06:23:20;;;;;;;2.58;1.80;;;;;;;;;;5080881;28;20052;-68
2023/09/21 06:25:49;;;;;;;2.22;1.63;;;;;;;;;;5086101;28;20048;-67
2023/09/21 06:28:18;;;;;;;3.15;1.83;;;;;;;;;;5084224;28;20090;-67
2023/09/21 06:30:47;;;;;;;4.32;1.60;;;;;;;;;;5080457;28;20271;-67
2023/09/21 06:33:15;;;;;;;4.57;1.95;;;;;;;;;;5080858;28;20048;-67
2023/09/21 06:35:45;;;;;;;3.33;1.77;;;;;;;;;;5080673;28;20056;-67
2023/09/21 06:38:14;;;;;;;3.88;1.73;;;;;;;;;;5082229;28;21517;-67
2023/09/21 06:40:45;;;;;;;7.22;2.50;;;;;;;;;;5076636;28;20080;-67
2023/09/21 06:43:13;;;;;;;7.68;2.58;;;;;;;;;;5080357;28;20071;-67
2023/09/21 06:45:43;;;;;;;4.72;2.60;;;;;;;;;;5079420;28;20685;-67
2023/09/21 06:48:11;;;;;;;5.65;2.72;;;;;;;;;;5081140;28;20044;-67
2023/09/21 06:50:40;;;;;;;3.53;2.25;;;;;;;;;;5083919;28;20052;-68
2023/09/21 06:53:10;;;;;;;5.97;2.03;;;;;;;;;;5080974;28;20148;-67
2023/09/21 06:55:38;;;;;;;5.28;2.58;;;;;;;;;;5076851;28;20129;-68
2023/09/21 06:58:08;;;;;;;8.27;2.28;;;;;;;;;;5081773;28;20451;-68
2023/09/21 07:00:37;;;;;;;5.82;2.22;;;;;;;;;;5081622;28;20463;-68
2023/09/21 07:03:05;;;;;;;4.07;2.25;;;;;;;;;;5083353;28;20040;-68
2023/09/21 07:05:34;;;;;;;4.40;1.67;;;;;;;;;;5083200;28;20151;-67
2023/09/21 07:08:03;;;;;;;10.05;2.03;;;;;;;;;;5082486;28;20049;-67
2023/09/21 07:10:32;;;;;;;3.67;2.30;;;;;;;;;;5079682;28;20040;-68
2023/09/21 07:13:01;;;;;;;6.40;2.92;;;;;;;;;;5082530;28;20044;-68
2023/09/21 07:15:29;;;;;;;6.35;2.42;;;;;;;;;;5082934;28;20067;-69
2023/09/21 07:17:58;;;;;;;6.80;2.75;;;;;;;;;;5083915;28;20499;-69
2023/09/21 07:20:26;;;;;;;5.38;2.83;;;;;;;;;;5084099;28;20386;-69
2023/09/21 07:22:55;;;;;;;6.22;2.33;;;;;;;;;;5079928;28;20437;-69
2023/09/21 07:25:24;;;;;;;5.03;2.35;;;;;;;;;;5081557;28;20710;-68
2023/09/21 07:27:54;;;;;;;3.00;1.88;;;;;;;;;;5083136;28;20047;-68
2023/09/21 07:30:23;;;;;;;5.00;2.15;;;;;;;;;;5084859;28;20479;-68
2023/09/21 07:32:51;;;;;;;3.92;2.20;;;;;;;;;;5080538;28;20048;-67
2023/09/21 07:35:21;;;;;;;4.18;2.13;;;;;;;;;;5083479;28;20036;-68
2023/09/21 07:37:50;;;;;;;7.70;2.20;;;;;;;;;;5084235;28;20051;-68
2023/09/21 07:40:19;;;;;;;6.82;2.42;;;;;;;;;;5086114;28;20056;-69
2023/09/21 07:42:48;;;;;;;6.43;2.22;;;;;;;;;;5084503;28;20911;-68
2023/09/21 07:45:19;;;;;;;6.78;2.63;;;;;;;;;;5082906;28;20847;-68
2023/09/21 07:47:49;;;;;;;3.08;2.17;;;;;;;;;;5085055;28;20125;-69
2023/09/21 07:50:18;;;;;;;6.80;2.85;;;;;;;;;;5084705;28;20040;-68
2023/09/21 07:52:47;;;;;;;3.13;2.08;;;;;;;;;;5081215;28;20044;-69
2023/09/21 07:55:15;;;;;;;7.30;2.63;;;;;;;;;;5080516;28;20561;-69
2023/09/21 07:57:47;;;;;;;5.05;2.60;;;;;;;;;;5081968;28;20048;-69
2023/09/21 08:00:15;;;;;;;9.38;2.85;;;;;;;;;;5084003;28;20487;-70
2023/09/21 08:02:45;;;;;;;7.55;2.72;;;;;;;;;;5081750;28;20089;-70
2023/09/21 08:05:14;;;;;;;3.60;2.28;;;;;;;;;;5079287;28;20123;-69
2023/09/21 08:07:43;;;;;;;3.58;2.22;;;;;;;;;;5087352;28;20051;-69
2023/09/21 08:10:11;;;;;;;6.05;2.15;;;;;;;;;;5082766;28;20056;-69
2023/09/21 08:12:41;;;;;;;7.43;2.63;;;;;;;;;;5083564;28;20503;-70
2023/09/21 08:15:11;;;;;;;3.30;2.13;;;;;;;;;;5085911;28;20047;-70
2023/09/21 08:17:40;;;;;;;4.95;2.83;;;;;;;;;;5082136;28;20036;-68
2023/09/21 08:20:13;;;;;;;8.35;2.20;;;;;;;;;;5087654;28;20050;-70
2023/09/21 08:22:47;;;;;;;5.00;2.13;;;;;;;;;;5079289;28;20123;-70
2023/09/21 08:25:16;;;;;;;4.63;2.05;;;;;;;;;;5077682;28;20048;-70
2023/09/21 08:27:45;;;;;;;8.43;2.47;;;;;;;;;;5079720;28;20703;-70
2023/09/21 08:30:15;;;;;;;6.97;2.17;;;;;;;;;;5079428;28;20043;-70
2023/09/21 08:32:44;;;;;;;3.88;2.20;;;;;;;;;;5079096;28;20050;-69
2023/09/21 08:35:16;;;;;;;3.72;2.20;;;;;;;;;;5084036;28;20149;-71
2023/09/21 08:37:44;;;;;;;5.72;2.38;;;;;;;;;;5081090;28;20546;-70
2023/09/21 08:40:14;;;;;;;7.45;2.10;;;;;;;;;;5082650;28;20074;-70
2023/09/21 08:42:43;;;;;;;5.13;2.38;;;;;;;;;;5080667;28;20604;-70
2023/09/21 08:45:12;;;;;;;6.35;2.10;;;;;;;;;;5082819;28;20480;-70
2023/09/21 08:47:41;;;;;;;3.45;1.90;;;;;;;;;;5077478;28;20059;-70
2023/09/21 08:50:10;;;;;;;4.45;2.10;;;;;;;;;;5078277;28;20040;-70
2023/09/21 08:52:40;;;;;;;6.07;2.15;;;;;;;;;;5084172;28;20036;-70
2023/09/21 08:55:10;;;;;;;6.85;1.70;;;;;;;;;;5079286;28;20142;-69
2023/09/21 08:57:40;;;;;;;4.22;1.90;;;;;;;;;;5079270;28;20382;-70
2023/09/21 09:00:09;;;;;;;4.13;1.88;;;;;;;;;;5081422;28;20052;-70
2023/09/21 09:02:37;;;;;;;4.68;1.83;;;;;;;;;;5082008;28;20058;-70
2023/09/21 09:05:07;;;;;;;5.00;1.95;;;;;;;;;;5080337;28;20071;-69
2023/09/21 09:07:41;;;;;;;6.57;2.05;;;;;;;;;;5076922;28;20048;-69
2023/09/21 09:10:10;;;;;;;5.03;2.10;;;;;;;;;;5079358;28;20546;-70
2023/09/21 09:12:39;;;;;;;6.07;1.85;;;;;;;;;;5079524;28;20044;-70
2023/09/21 09:15:09;;;;;;;4.57;1.88;;;;;;;;;;5080509;28;20040;-70
2023/09/21 09:17:40;;;;;;;4.07;1.80;;;;;;;;;;5079535;28;20071;-70
2023/09/21 09:20:09;;;;;;;2.60;1.80;;;;;;;;;;5079430;28;20068;-69
2023/09/21 09:22:39;;;;;;;3.97;1.40;;;;;;;;;;5079768;28;20113;-70
2023/09/21 09:25:09;;;;;;;3.75;1.55;;;;;;;;;;5072262;28;20048;-70
2023/09/21 09:27:38;;;;;;;4.13;1.80;;;;;;;;;;5080850;28;20048;-70
2023/09/21 09:30:08;;;;;;;5.55;1.67;;;;;;;;;;5082031;28;20040;-69
2023/09/21 09:32:41;;;;;;;3.25;1.42;;;;;;;;;;5077896;28;20041;-70
2023/09/21 09:35:13;;;;;;;2.92;1.63;;;;;;;;;;5079523;28;20036;-72
2023/09/21 09:37:44;;;;;;;4.95;1.38;;;;;;;;;;5083534;28;20101;-71
2023/09/21 09:40:18;;;;;;;3.38;1.45;;;;;;;;;;5078550;28;20061;-72
2023/09/21 09:42:48;;;;;;;2.72;1.20;;;;;;;;;;5080046;28;20051;-71
2023/09/21 09:45:19;;;;;;;2.58;1.45;;;;;;;;;;5084231;28;20060;-70
2023/09/21 09:47:51;;;;;;;4.88;1.50;;;;;;;;;;5082368;28;20145;-71
2023/09/21 09:50:24;;;;;;;2.33;1.35;;;;;;;;;;5079188;28;20118;-70
2023/09/21 09:53:00;;;;;;;3.28;1.83;;;;;;;;;;5082621;28;20039;-69
2023/09/21 09:55:31;;;;;;;3.28;1.30;;;;;;;;;;5081476;28;20119;-70
2023/09/21 09:58:00;;;;;;;6.95;1.33;;;;;;;;;;5081950;28;20048;-70
2023/09/21 10:00:29;;;;;;;2.03;1.15;;;;;;;;;;5077694;28;20066;-70
2023/09/21 10:02:58;;;;;;;2.72;1.27;;;;;;;;;;5082173;28;20048;-71
2023/09/21 10:05:27;;;;;;;3.40;1.80;;;;;;;;;;5082618;28;20052;-72
2023/09/21 10:08:00;;;;;;;3.83;1.27;;;;;;;;;;5079907;28;20123;-70
2023/09/21 10:10:31;;;;;;;3.60;1.52;;;;;;;;;;5078896;28;20094;-70
2023/09/21 10:13:00;;;;;;;2.30;1.23;;;;;;;;;;5075480;28;20067;-73
2023/09/21 10:15:33;;;;;;;4.53;1.85;;;;;;;;;;5081180;28;20044;-70
2023/09/21 10:18:02;;;;;;;1.25;1.10;;;;;;;;;;5076319;28;20051;-70
2023/09/21 10:20:32;;;;;;;3.65;1.60;;;;;;;;;;5085263;28;20044;-70
2023/09/21 10:23:03;;;;;;;2.55;1.42;;;;;;;;;;5081811;28;20032;-70
2023/09/21 10:25:39;;;;;;;4.13;1.40;;;;;;;;;;5079963;28;20036;-70
2023/09/21 10:28:27;;;;;;;2.70;1.65;;;;;;;;;;5079646;28;20485;-70
2023/09/21 10:30:56;;;;;;;7.93;1.40;;;;;;;;;;5068967;28;20440;-70
2023/09/21 10:33:25;;;;;;;5.22;1.35;;;;;;;;;;5079355;28;20048;-70
2023/09/21 10:35:54;;;;;;;2.92;1.10;;;;;;;;;;5083059;28;20481;-70
2023/09/21 10:38:24;;;;;;;2.67;1.30;;;;;;;;;;5078747;28;20131;-70
2023/09/21 10:40:52;;;;;;;3.15;1.80;;;;;;;;;;5083756;28;20048;-72
2023/09/21 10:43:36;;;;;;;6.30;1.38;;;;;;;;;;5082352;28;20055;-71
2023/09/21 10:46:05;;;;;;;4.35;1.30;;;;;;;;;;5079508;28;20067;-71
2023/09/21 10:48:33;;;;;;;2.13;1.10;;;;;;;;;;5084005;28;20048;-71
2023/09/21 10:51:03;;;;;;;6.07;1.15;;;;;;;;;;5081476;28;20048;-71
2023/09/21 10:53:35;;;;;;;3.95;1.30;;;;;;;;;;5079648;28;20093;-73
2023/09/21 10:56:05;;;;;;;2.80;1.55;;;;;;;;;;5075666;28;20040;-71
2023/09/21 10:58:33;;;;;;;2.97;1.30;;;;;;;;;;5080055;28;20052;-71
2023/09/21 11:01:02;;;;;;;1.90;1.13;;;;;;;;;;5082445;28;20048;-71
2023/09/21 11:03:30;;;;;;;2.85;1.30;;;;;;;;;;5080381;28;20044;-71
2023/09/21 11:05:59;;;;;;;1.63;1.17;;;;;;;;;;5081150;28;20066;-71
2023/09/21 11:08:28;;;;;;;2.70;1.10;;;;;;;;;;5080370;28;20316;-71
2023/09/21 11:10:59;;;;;;;2.45;1.35;;;;;;;;;;5086359;28;20080;-71
2023/09/21 11:13:27;;;;;;;3.75;1.30;;;;;;;;;;5087006;28;20052;-70
2023/09/21 11:15:56;;;;;;;2.05;1.25;;;;;;;;;;5087504;28;20776;-72
2023/09/21 11:18:24;;;;;;;1.65;1.10;;;;;;;;;;5082938;28;20465;-72
2023/09/21 11:20:54;;;;;;;3.65;1.60;;;;;;;;;;5085617;28;20545;-71
2023/09/21 11:23:23;;;;;;;1.40;1.08;;;;;;;;;;5085083;28;20063;-71
2023/09/21 11:25:51;;;;;;;1.17;0.98;;;;;;;;;;5082876;28;20044;-72
2023/09/21 11:28:22;;;;;;;4.50;1.20;;;;;;;;;;5081742;28;20125;-71
2023/09/21 11:30:53;;;;;;;1.58;1.13;;;;;;;;;;5087282;28;20043;-71
2023/09/21 11:33:21;;;;;;;2.13;1.30;;;;;;;;;;5085777;28;20594;-72
2023/09/21 11:35:51;;;;;;;1.20;0.88;;;;;;;;;;5084691;28;20044;-71
2023/09/21 11:38:20;;;;;;;4.72;1.20;;;;;;;;;;5085422;28;20040;-73
2023/09/21 11:40:50;;;;;;;3.03;1.02;;;;;;;;;;5086192;28;20493;-71
2023/09/21 11:43:20;;;;;;;2.65;0.93;;;;;;;;;;5084871;28;20064;-71
2023/09/21 11:45:49;;;;;;;3.00;1.27;;;;;;;;;;5086214;28;20051;-70
2023/09/21 11:48:18;;;;;;;3.42;0.98;;;;;;;;;;5081885;28;20474;-71
2023/09/21 11:50:48;;;;;;;2.35;0.93;;;;;;;;;;5085347;28;20063;-70
2023/09/21 11:53:19;;;;;;;4.20;1.48;;;;;;;;;;5083949;28;20060;-71
2023/09/21 11:55:48;;;;;;;2.58;1.23;;;;;;;;;;5082095;28;20065;-72
2023/09/21 11:58:17;;;;;;;3.00;0.95;;;;;;;;;;5085533;28;20495;-70
2023/09/21 12:00:49;;;;;;;1.00;0.90;;;;;;;;;;5083295;28;20443;-71
2023/09/21 12:03:23;;;;;;;1.67;0.90;;;;;;;;;;5080475;28;20246;-70
2023/09/21 12:05:55;;;;;;;3.88;1.00;;;;;;;;;;5080281;28;20042;-71
2023/09/21 12:08:25;;;;;;;1.77;1.00;;;;;;;;;;5082319;28;20250;-71
2023/09/21 12:10:54;;;;;;;2.08;1.17;;;;;;;;;;5085278;28;20040;-71
2023/09/21 12:13:23;;;;;;;3.53;0.90;;;;;;;;;;5085580;28;20448;-70
2023/09/21 12:15:55;;;;;;;1.30;1.10;;;;;;;;;;5083389;28;20139;-72
2023/09/21 12:18:28;;;;;;;1.35;0.88;;;;;;;;;;5079915;28;20143;-75
2023/09/21 12:21:00;;;;;;;1.40;0.80;;;;;;;;;;5084735;28;20040;-70
2023/09/21 12:23:30;;;;;;;2.33;1.02;;;;;;;;;;5081810;28;20048;-71
2023/09/21 12:25:58;;;;;;;2.80;0.82;;;;;;;;;;5085507;28;20131;-71
2023/09/21 12:28:27;;;;;;;2.72;1.38;;;;;;;;;;5088188;28;20052;-71
2023/09/21 12:30:55;;;;;;;1.35;0.98;;;;;;;;;;5082424;28;20068;-71
2023/09/21 12:33:24;;;;;;;3.03;0.80;;;;;;;;;;5081055;28;20135;-71
2023/09/21 12:36:14;;;;;;;2.00;1.23;;;;;;;;;;5086603;28;20048;-70
2023/09/21 12:38:54;;;;;;;2.90;0.98;;;;;;;;;;5086688;28;20052;-70
2023/09/21 12:41:23;;;;;;;4.25;1.33;;;;;;;;;;5084176;28;20043;-71
2023/09/21 12:43:51;;;;;;;1.25;0.95;;;;;;;;;;5078882;28;20056;-70
2023/09/21 12:46:20;;;;;;;1.10;0.80;;;;;;;;;;5080281;28;20106;-70
2023/09/21 12:48:49;;;;;;;3.03;1.00;;;;;;;;;;5084324;28;20044;-71
2023/09/21 12:51:19;;;;;;;5.70;0.90;;;;;;;;;;5081485;28;20576;-72
2023/09/21 12:53:47;;;;;;;2.03;1.10;;;;;;;;;;5079441;28;20067;-72
2023/09/21 12:56:16;;;;;;;1.42;0.93;;;;;;;;;;5086262;28;20488;-72
2023/09/21 12:58:44;;;;;;;2.42;1.00;;;;;;;;;;5084739;28;20509;-71
2023/09/21 13:01:13;;;;;;;1.90;1.10;;;;;;;;;;5085642;28;20055;-73
2023/09/21 13:03:41;;;;;;;1.80;0.90;;;;;;;;;;5081141;28;20143;-71
2023/09/21 13:06:13;;;;;;;1.90;0.90;;;;;;;;;;5083644;28;20076;-70
2023/09/21 13:08:43;;;;;;;3.30;0.93;;;;;;;;;;5079831;28;20437;-72
2023/09/21 13:11:12;;;;;;;2.22;0.93;;;;;;;;;;5082929;28;20525;-70
2023/09/21 13:13:40;;;;;;;1.02;0.80;;;;;;;;;;5079801;28;20123;-72
2023/09/21 13:16:10;;;;;;;2.15;0.88;;;;;;;;;;5081142;28;20047;-73
2023/09/21 13:18:40;;;;;;;1.90;1.13;;;;;;;;;;5080169;28;20082;-71
2023/09/21 13:21:10;;;;;;;1.98;1.05;;;;;;;;;;5078057;28;20344;-70
2023/09/21 13:23:38;;;;;;;1.60;0.70;;;;;;;;;;5082273;28;20048;-72
2023/09/21 13:26:08;;;;;;;2.70;0.88;;;;;;;;;;5078334;28;20051;-73
2023/09/21 13:28:37;;;;;;;1.13;0.80;;;;;;;;;;5078029;28;20792;-71
2023/09/21 13:31:07;;;;;;;2.28;0.95;;;;;;;;;;5080389;28;20129;-70
2023/09/21 13:33:36;;;;;;;4.00;0.90;;;;;;;;;;5084043;28;20428;-70
2023/09/21 13:36:05;;;;;;;2.35;1.05;;;;;;;;;;5081518;28;20064;-71
2023/09/21 13:38:33;;;;;;;1.85;1.00;;;;;;;;;;5079269;28;20044;-70
2023/09/21 13:41:03;;;;;;;1.70;1.58;;;;;;;;;;5082580;28;20067;-71
2023/09/21 13:43:34;;;;;;;2.03;0.88;;;;;;;;;;5084641;28;20124;-70
2023/09/21 13:46:05;;;;;;;1.35;1.00;;;;;;;;;;5081674;28;20040;-72
2023/09/21 13:48:33;;;;;;;1.55;0.90;;;;;;;;;;5082651;28;20469;-70
2023/09/21 13:51:02;;;;;;;0.82;0.82;;;;;;;;;;5080980;28;20122;-71
2023/09/21 13:53:31;;;;;;;2.35;0.77;;;;;;;;;;5077912;28;20071;-70
2023/09/21 13:56:00;;;;;;;3.05;0.90;;;;;;;;;;5077158;28;20044;-70
2023/09/21 13:58:28;;;;;;;1.02;0.70;;;;;;;;;;5079470;28;20067;-71
2023/09/21 14:00:58;;;;;;;1.13;0.90;;;;;;;;;;5078869;28;20051;-72
2023/09/21 14:03:28;;;;;;;1.63;1.05;;;;;;;;;;5073322;28;20076;-72
2023/09/21 14:05:57;;;;;;;1.77;0.80;;;;;;;;;;5078811;28;20055;-72
2023/09/21 14:08:26;;;;;;;2.05;0.80;;;;;;;;;;5083302;28;20059;-72
2023/09/21 14:10:54;;;;;;;1.88;0.65;;;;;;;;;;5082435;28;20052;-70
2023/09/21 14:13:23;;;;;;;2.50;0.70;;;;;;;;;;5081860;28;20473;-70
2023/09/21 14:15:51;;;;;;;1.95;0.80;;;;;;;;;;5080623;28;20054;-69
2023/09/21 14:18:21;;;;;;;1.17;0.90;;;;;;;;;;5082284;28;20040;-69
2023/09/21 14:20:50;;;;;;;1.20;0.85;;;;;;;;;;5077608;28;20131;-70
2023/09/21 14:23:18;;;;;;;3.55;0.93;;;;;;;;;;5082544;28;20238;-70
2023/09/21 14:25:47;;;;;;;3.60;0.90;;;;;;;;;;5081842;28;20040;-73
2023/09/21 14:28:15;;;;;;;1.90;0.80;;;;;;;;;;5081756;28;20048;-70
2023/09/21 14:30:43;;;;;;;1.55;0.73;;;;;;;;;;5083475;28;20128;-71
2023/09/21 14:33:16;;;;;;;1.23;0.60;;;;;;;;;;5079733;28;20048;-70
2023/09/21 14:35:46;;;;;;;1.58;0.70;;;;;;;;;;5077720;28;20063;-70
2023/09/21 14:38:15;;;;;;;3.72;0.90;;;;;;;;;;5084250;28;20054;-70
2023/09/21 14:40:43;;;;;;;2.22;0.70;;;;;;;;;;5040664;28;1152322;-70
2023/09/21 14:43:12;;;;;;;1.30;0.90;;;;;;;;;;5083007;28;20051;-70
2023/09/21 14:45:41;;;;;;;1.75;1.00;;;;;;;;;;5082190;28;20044;-71
2023/09/21 14:48:10;;;;;;;1.17;0.70;;;;;;;;;;5087507;28;20048;-72
2023/09/21 14:50:40;;;;;;;0.80;0.70;;;;;;;;;;5088773;28;20056;-72
2023/09/21 14:53:10;;;;;;;1.42;0.60;;;;;;;;;;5086498;28;20052;-72
2023/09/21 14:55:38;;;;;;;1.30;0.73;;;;;;;;;;5082853;28;20043;-71
2023/09/21 14:58:07;;;;;;;0.93;0.70;;;;;;;;;;5084872;28;20685;-72